createdAt,value
2023-05-25T00:00:25.797Z,100786.44
2023-05-25T00:05:27.724Z,100783.72
2023-05-25T00:10:29.403Z,100782.03
2023-05-25T00:15:30.899Z,100772.53
2023-05-25T00:20:33.267Z,100771.22
2023-05-25T00:25:34.830Z,100778.94
2023-05-25T00:30:36.353Z,100776.31
2023-05-25T00:35:37.973Z,100772.31
2023-05-25T00:40:41.286Z,100782.84
2023-05-25T00:45:42.989Z,100783.66
2023-05-25T00:50:45.842Z,100794.06
2023-05-25T00:55:59.808Z,100796.78
2023-05-25T01:01:03.788Z,100805.88
2023-05-25T01:06:11.875Z,100798.75
2023-05-25T01:11:15.030Z,100787.63
2023-05-25T01:16:17.102Z,100790.00
2023-05-25T01:21:38.057Z,100801.69
2023-05-25T01:26:44.390Z,100810.00
2023-05-25T01:31:47.820Z,100804.16
2023-05-25T01:36:49.704Z,100808.06
2023-05-25T01:41:51.158Z,100820.63
2023-05-25T01:47:05.599Z,100822.91
2023-05-25T01:52:26.756Z,100828.19
2023-05-25T01:57:29.777Z,100821.06
2023-05-25T02:02:33.573Z,100824.13
2023-05-25T02:07:36.397Z,100831.22
2023-05-25T02:12:37.993Z,100832.97
2023-05-25T02:17:39.469Z,100834.69
2023-05-25T02:22:40.993Z,100834.69
2023-05-25T02:27:43.160Z,100830.03
2023-05-25T02:32:44.859Z,100823.00
2023-05-25T02:37:48.463Z,100831.97
2023-05-25T02:42:51.822Z,100831.22
2023-05-25T02:47:53.306Z,100819.53
2023-05-25T02:52:55.015Z,100821.50
2023-05-25T02:57:56.985Z,100823.22
2023-05-25T03:02:58.534Z,100824.63
2023-05-25T03:08:00.008Z,100824.28
2023-05-25T03:13:01.473Z,100823.56
2023-05-25T03:18:03.028Z,100834.78
2023-05-25T03:23:04.709Z,100843.75
2023-05-25T03:28:06.298Z,100855.44
2023-05-25T03:33:07.879Z,100862.59
2023-05-25T03:38:09.416Z,100864.75
2023-05-25T03:43:10.865Z,100870.47
2023-05-25T03:48:12.372Z,100875.13
2023-05-25T03:53:13.834Z,100869.72
2023-05-25T03:58:16.088Z,100874.38
2023-05-25T04:03:17.697Z,100870.16
2023-05-25T04:08:22.466Z,100869.28
2023-05-25T04:13:24.038Z,100876.94
2023-05-25T04:18:25.689Z,100895.00
2023-05-25T04:23:27.791Z,100880.53
2023-05-25T04:28:29.407Z,100889.28
2023-05-25T04:33:30.932Z,100886.78
2023-05-25T04:38:33.325Z,100892.00
2023-05-25T04:43:34.851Z,100896.50
2023-05-25T04:48:39.096Z,100903.22
2023-05-25T04:53:40.707Z,100905.63
2023-05-25T04:58:42.271Z,100903.47
2023-05-25T05:03:43.761Z,100902.81
2023-05-25T05:08:45.224Z,100908.66
2023-05-25T05:13:46.740Z,100900.00
2023-05-25T05:18:48.496Z,100906.06
2023-05-25T05:23:50.046Z,100905.16
2023-05-25T05:28:52.636Z,100917.94
2023-05-25T05:33:54.196Z,100903.19
2023-05-25T05:38:55.905Z,100908.56
2023-05-25T05:43:57.360Z,100906.81
2023-05-25T05:48:58.832Z,100920.03
2023-05-25T05:54:00.368Z,100910.81
2023-05-25T05:59:01.866Z,100918.34
2023-05-25T06:04:08.111Z,100917.38
2023-05-25T06:09:09.657Z,100919.28
2023-05-25T06:14:11.362Z,100916.75
2023-05-25T06:19:14.422Z,100915.94
2023-05-25T06:24:16.276Z,100928.16
2023-05-25T06:29:17.764Z,100926.50
2023-05-25T06:34:19.324Z,100928.22
2023-05-25T06:39:20.784Z,100924.53
2023-05-25T06:44:22.239Z,100936.03
2023-05-25T06:49:23.687Z,100935.00
2023-05-25T06:54:25.126Z,100937.91
2023-05-25T06:59:26.682Z,100923.13
2023-05-25T07:04:28.638Z,100916.47
2023-05-25T07:09:30.196Z,100922.13
2023-05-25T07:14:31.668Z,100916.44
2023-05-25T07:19:33.203Z,100916.19
2023-05-25T07:24:34.675Z,100920.38
2023-05-25T07:29:36.203Z,100926.31
2023-05-25T07:34:37.780Z,100925.06
2023-05-25T07:39:40.546Z,100930.75
2023-05-25T07:44:42.020Z,100932.56
2023-05-25T07:49:43.477Z,100933.63
2023-05-25T07:54:45.668Z,100936.00
2023-05-25T07:59:47.245Z,100938.94
2023-05-25T08:04:48.752Z,100940.13
2023-05-25T08:09:50.328Z,100953.69
2023-05-25T08:14:51.889Z,100951.00
2023-05-25T08:19:54.823Z,100945.56
2023-05-25T08:24:56.362Z,100940.44
2023-05-25T08:29:57.803Z,100937.72
2023-05-25T08:34:59.247Z,100935.00
2023-05-25T08:40:02.553Z,100934.22
2023-05-25T08:45:04.463Z,100936.56
2023-05-25T08:50:08.764Z,100940.81
2023-05-25T08:55:11.082Z,100942.53
2023-05-25T09:00:15.687Z,100951.88
2023-05-25T09:05:17.893Z,100953.28
2023-05-25T09:10:19.481Z,100956.88
2023-05-25T09:15:21.219Z,100952.75
2023-05-25T09:20:23.929Z,100963.97
2023-05-25T09:25:27.609Z,100968.81
2023-05-25T09:30:32.840Z,100969.19
2023-05-25T09:35:35.384Z,100963.91
2023-05-25T09:40:38.197Z,100962.66
2023-05-25T09:45:39.744Z,100947.09
2023-05-25T09:50:41.270Z,100956.56
2023-05-25T09:55:53.300Z,100964.19
2023-05-25T10:00:56.074Z,100948.41
2023-05-25T10:05:57.745Z,100952.28
2023-05-25T10:10:59.706Z,100960.91
2023-05-25T10:16:02.201Z,100955.28
2023-05-25T10:21:05.262Z,100951.06
2023-05-25T10:26:09.228Z,100959.69
2023-05-25T10:31:12.242Z,100957.81
2023-05-25T10:36:14.911Z,100955.88
2023-05-25T10:41:17.792Z,100949.34
2023-05-25T10:46:19.483Z,100950.44
2023-05-25T10:51:21.760Z,100939.50
2023-05-25T10:56:23.283Z,100945.97
2023-05-25T11:01:25.527Z,100942.13
2023-05-25T11:06:44.256Z,100939.25
2023-05-25T11:11:50.159Z,100926.69
2023-05-25T11:17:15.261Z,100923.16
2023-05-25T11:22:30.669Z,100929.00
2023-05-25T11:27:32.522Z,100922.72
2023-05-25T11:32:34.166Z,100922.25
2023-05-25T11:37:36.173Z,100921.19
2023-05-25T11:42:38.374Z,100921.69
2023-05-25T11:47:39.944Z,100915.94
2023-05-25T11:52:41.580Z,100916.00
2023-05-25T11:57:43.267Z,100910.19
2023-05-25T12:02:44.818Z,100911.94
2023-05-25T12:07:46.982Z,100908.00
2023-05-25T12:12:51.802Z,100897.97
2023-05-25T12:17:54.174Z,100902.34
2023-05-25T12:22:56.104Z,100903.13
2023-05-25T12:28:11.438Z,100895.00
2023-05-25T12:33:14.197Z,100892.66
2023-05-25T12:38:18.918Z,100899.25
2023-05-25T12:43:20.523Z,100881.75
2023-05-25T12:48:32.117Z,100871.56
2023-05-25T12:53:49.763Z,100879.34
2023-05-25T12:58:51.349Z,100877.59
2023-05-25T13:03:54.224Z,100877.59
2023-05-25T13:08:55.687Z,100865.72
2023-05-25T13:13:57.158Z,100876.81
2023-05-25T13:18:58.697Z,100863.41
2023-05-25T13:24:00.186Z,100861.28
2023-05-25T13:29:01.780Z,100853.41
2023-05-25T13:34:03.624Z,100848.31
2023-05-25T13:39:05.381Z,100843.38
2023-05-25T13:44:06.928Z,100845.94
2023-05-25T13:49:08.393Z,100843.53
2023-05-25T13:54:09.848Z,100833.06
2023-05-25T13:59:11.416Z,100837.84
2023-05-25T14:04:15.707Z,100835.75
2023-05-25T14:09:17.397Z,100834.56
2023-05-25T14:14:30.054Z,100818.66
2023-05-25T14:19:32.954Z,100820.88
2023-05-25T14:24:34.469Z,100814.56
2023-05-25T14:29:36.185Z,100810.84
2023-05-25T14:34:37.714Z,100803.56
2023-05-25T14:39:39.192Z,100806.50
2023-05-25T14:44:40.703Z,100805.13
2023-05-25T14:49:42.617Z,100799.97
2023-05-25T14:54:44.956Z,100804.97
2023-05-25T14:59:46.562Z,100803.06
2023-05-25T15:04:48.087Z,100796.19
2023-05-25T15:09:49.615Z,100803.72
2023-05-25T15:14:51.117Z,100796.31
2023-05-25T15:19:52.636Z,100787.97
2023-05-25T15:24:54.158Z,100789.34
2023-05-25T15:29:55.679Z,100799.63
2023-05-25T15:34:57.137Z,100795.31
2023-05-25T15:39:58.641Z,100797.72
2023-05-25T15:45:00.148Z,100796.50
2023-05-25T15:50:01.688Z,100792.34
2023-05-25T15:55:03.452Z,100783.44
2023-05-25T16:00:05.677Z,100778.44
2023-05-25T16:05:07.635Z,100776.25
2023-05-25T16:10:09.602Z,100785.75
2023-05-25T16:15:11.115Z,100781.44
2023-05-25T16:20:12.758Z,100786.16
2023-05-25T16:25:14.249Z,100773.69
2023-05-25T16:30:15.804Z,100771.59
2023-05-25T16:35:17.331Z,100768.81
2023-05-25T16:40:18.792Z,100770.38
2023-05-25T16:45:23.210Z,100774.63
2023-05-25T16:50:24.712Z,100770.19
2023-05-25T16:55:26.304Z,100767.66
2023-05-25T17:00:27.823Z,100761.97
2023-05-25T17:05:29.407Z,100765.91
2023-05-25T17:10:30.873Z,100768.81
2023-05-25T17:15:32.375Z,100761.31
2023-05-25T17:20:33.870Z,100770.50
2023-05-25T17:25:35.349Z,100762.88
2023-05-25T17:30:36.912Z,100763.13
2023-05-25T17:35:38.370Z,100762.06
2023-05-25T17:40:39.827Z,100759.28
2023-05-25T17:45:41.459Z,100769.16
2023-05-25T17:50:43.148Z,100772.72
2023-05-25T17:55:44.824Z,100767.00
2023-05-25T18:00:46.609Z,100761.69
2023-05-25T18:05:48.096Z,100765.59
2023-05-25T18:10:50.589Z,100762.47
2023-05-25T18:15:52.143Z,100769.47
2023-05-25T18:20:53.586Z,100759.22
2023-05-25T18:25:55.174Z,100764.34
2023-05-25T18:30:56.668Z,100770.31
2023-05-25T18:35:58.167Z,100769.00
2023-05-25T18:40:59.759Z,100763.91
2023-05-25T18:46:01.278Z,100770.03
2023-05-25T18:51:03.214Z,100780.47
2023-05-25T18:56:04.891Z,100775.66
2023-05-25T19:01:06.376Z,100783.75
2023-05-25T19:06:07.825Z,100788.97
2023-05-25T19:11:09.313Z,100786.69
2023-05-25T19:16:10.956Z,100790.31
2023-05-25T19:21:12.480Z,100798.69
2023-05-25T19:26:14.028Z,100798.00
2023-05-25T19:31:15.574Z,100803.47
2023-05-25T19:36:17.109Z,100811.50
2023-05-25T19:41:18.754Z,100806.19
2023-05-25T19:46:20.279Z,100810.78
2023-05-25T19:51:21.801Z,100807.19
2023-05-25T19:56:23.257Z,100802.59
2023-05-25T20:01:24.920Z,100809.88
2023-05-25T20:06:26.396Z,100807.28
2023-05-25T20:11:28.335Z,100810.56
2023-05-25T20:16:29.819Z,100819.59
2023-05-25T20:21:31.311Z,100819.41
2023-05-25T20:26:33.980Z,100824.66
2023-05-25T20:31:35.634Z,100824.53
2023-05-25T20:36:37.296Z,100825.06
2023-05-25T20:41:38.755Z,100830.31
2023-05-25T20:46:40.523Z,100842.75
2023-05-25T20:51:44.470Z,100835.13
2023-05-25T20:56:47.808Z,100831.22
2023-05-25T21:01:49.358Z,100832.88
2023-05-25T21:06:50.887Z,100837.25
2023-05-25T21:11:52.338Z,100833.44
2023-05-25T21:16:53.799Z,100834.06
2023-05-25T21:21:55.331Z,100840.41
2023-05-25T21:26:56.788Z,100837.19
2023-05-25T21:31:59.626Z,100839.19
2023-05-25T21:37:01.094Z,100835.59
2023-05-25T21:42:03.429Z,100839.44
2023-05-25T21:47:05.141Z,100843.75
2023-05-25T21:52:06.719Z,100836.47
2023-05-25T21:57:08.164Z,100836.41
2023-05-25T22:02:09.652Z,100852.94
2023-05-25T22:07:11.121Z,100848.19
2023-05-25T22:12:12.917Z,100844.94
2023-05-25T22:17:15.904Z,100854.84
2023-05-25T22:22:17.378Z,100847.66
2023-05-25T22:27:18.853Z,100857.16
2023-05-25T22:32:20.366Z,100863.19
2023-05-25T22:37:21.812Z,100863.34
2023-05-25T22:42:23.339Z,100867.72
2023-05-25T22:47:24.931Z,100868.34
2023-05-25T22:52:26.552Z,100865.56
2023-05-25T22:57:28.039Z,100861.19
2023-05-25T23:02:29.648Z,100854.56
2023-05-25T23:07:31.433Z,100844.22
2023-05-25T23:12:32.916Z,100846.19
2023-05-25T23:17:34.447Z,100848.91
2023-05-25T23:22:36.272Z,100846.25
2023-05-25T23:27:38.022Z,100848.00
2023-05-25T23:32:39.596Z,100842.97
2023-05-25T23:37:41.126Z,100852.25
2023-05-25T23:42:44.204Z,100853.59
2023-05-25T23:47:45.675Z,100851.50
2023-05-25T23:52:47.349Z,100858.41
2023-05-25T23:57:48.809Z,100853.03
